createdAt,value
2019-06-25T00:01:42.898Z,9.20
2019-06-25T00:04:31.886Z,8.90
2019-06-25T00:07:21.138Z,8.93
2019-06-25T00:10:10.385Z,9.50
2019-06-25T00:12:59.436Z,9.03
2019-06-25T00:15:48.091Z,10.33
2019-06-25T00:18:37.524Z,8.80
2019-06-25T00:21:27.049Z,8.50
2019-06-25T00:24:15.879Z,9.33
2019-06-25T00:27:04.601Z,9.03
2019-06-25T00:29:56.335Z,8.60
2019-06-25T00:32:45.182Z,8.70
2019-06-25T00:35:33.925Z,9.13
2019-06-25T00:38:22.833Z,9.00
2019-06-25T00:41:12.273Z,8.60
2019-06-25T00:44:01.075Z,9.77
2019-06-25T00:46:50.194Z,9.07
2019-06-25T00:49:39.374Z,9.40
2019-06-25T00:52:28.261Z,10.40
2019-06-25T00:55:17.191Z,9.27
2019-06-25T00:58:06.339Z,9.13
2019-06-25T01:00:54.834Z,8.97
2019-06-25T01:03:45.611Z,9.63
2019-06-25T01:06:35.260Z,8.90
2019-06-25T01:09:26.601Z,10.07
2019-06-25T01:12:15.460Z,9.53
2019-06-25T01:15:04.541Z,9.00
2019-06-25T01:17:53.494Z,8.93
2019-06-25T01:20:42.579Z,9.60
2019-06-25T01:23:31.973Z,10.10
2019-06-25T01:26:21.009Z,8.90
2019-06-25T01:29:09.977Z,9.40
2019-06-25T01:31:59.246Z,8.80
2019-06-25T01:34:48.354Z,9.07
2019-06-25T01:37:37.408Z,8.83
2019-06-25T01:40:25.987Z,9.07
2019-06-25T01:43:14.594Z,8.70
2019-06-25T01:46:03.116Z,10.00
2019-06-25T01:48:52.969Z,9.30
2019-06-25T01:51:42.126Z,9.53
2019-06-25T01:54:30.970Z,9.57
2019-06-25T01:57:19.884Z,9.80
2019-06-25T02:00:09.829Z,9.50
2019-06-25T02:02:59.093Z,9.17
2019-06-25T02:05:47.926Z,9.20
2019-06-25T02:08:36.792Z,8.33
2019-06-25T02:11:26.274Z,8.97
2019-06-25T02:14:15.742Z,9.53
2019-06-25T02:17:04.808Z,7.97
2019-06-25T02:19:53.950Z,9.20
2019-06-25T02:22:43.312Z,9.27
2019-06-25T02:25:32.408Z,9.50
2019-06-25T02:28:21.881Z,9.00
2019-06-25T02:31:10.343Z,9.00
2019-06-25T02:33:58.752Z,9.10
2019-06-25T02:36:47.677Z,8.47
2019-06-25T02:39:37.329Z,7.77
2019-06-25T02:42:26.537Z,8.60
2019-06-25T02:45:17.792Z,9.13
2019-06-25T02:48:06.307Z,8.50
2019-06-25T02:50:55.075Z,8.20
2019-06-25T02:53:43.662Z,8.37
2019-06-25T02:56:33.200Z,8.60
2019-06-25T02:59:21.727Z,8.00
2019-06-25T03:02:10.311Z,8.70
2019-06-25T03:04:59.707Z,8.60
2019-06-25T03:07:48.237Z,8.40
2019-06-25T03:10:37.529Z,8.43
2019-06-25T03:13:26.845Z,9.20
2019-06-25T03:16:15.742Z,8.50
2019-06-25T03:19:04.850Z,7.93
2019-06-25T03:21:53.859Z,7.80
2019-06-25T03:24:42.905Z,8.10
2019-06-25T03:27:32.248Z,8.40
2019-06-25T03:30:21.611Z,8.60
2019-06-25T03:33:10.870Z,8.10
2019-06-25T03:35:59.597Z,8.00
2019-06-25T03:38:48.095Z,8.33
2019-06-25T03:41:36.918Z,8.50
2019-06-25T03:44:25.906Z,8.10
2019-06-25T03:47:14.250Z,8.33
2019-06-25T03:50:03.262Z,8.97
2019-06-25T03:52:52.090Z,9.27
2019-06-25T03:55:41.617Z,8.63
2019-06-25T03:58:30.695Z,8.50
2019-06-25T04:01:19.867Z,8.63
2019-06-25T04:04:09.237Z,9.07
2019-06-25T04:06:58.232Z,9.17
2019-06-25T04:09:47.530Z,8.07
2019-06-25T04:12:36.895Z,7.97
2019-06-25T04:15:25.451Z,8.20
2019-06-25T04:18:14.282Z,8.17
2019-06-25T04:21:03.209Z,8.30
2019-06-25T04:23:51.769Z,8.27
2019-06-25T04:26:41.258Z,8.97
2019-06-25T04:29:30.715Z,8.47
2019-06-25T04:32:32.293Z,8.57
2019-06-25T04:35:09.774Z,8.10
2019-06-25T04:37:58.859Z,7.27
2019-06-25T04:40:47.891Z,8.33
2019-06-25T04:43:37.156Z,7.70
2019-06-25T04:46:26.164Z,8.17
2019-06-25T04:49:15.630Z,7.67
2019-06-25T04:52:04.631Z,7.70
2019-06-25T04:54:53.595Z,8.20
2019-06-25T04:57:43.236Z,8.63
2019-06-25T05:00:33.205Z,8.03
2019-06-25T05:03:23.017Z,7.00
2019-06-25T05:06:11.808Z,7.47
2019-06-25T05:09:00.503Z,7.90
2019-06-25T05:11:49.480Z,7.17
2019-06-25T05:14:39.451Z,8.10
2019-06-25T05:17:29.004Z,7.20
2019-06-25T05:20:18.478Z,7.10
2019-06-25T05:23:07.176Z,6.60
2019-06-25T05:25:58.346Z,7.00
2019-06-25T05:28:46.966Z,7.10
2019-06-25T05:31:38.429Z,7.77
2019-06-25T05:34:27.432Z,7.40
2019-06-25T05:37:21.427Z,6.63
2019-06-25T05:40:14.285Z,7.40
2019-06-25T05:43:03.637Z,7.07
2019-06-25T05:45:52.301Z,7.53
2019-06-25T05:48:41.859Z,7.60
2019-06-25T05:51:30.925Z,7.80
2019-06-25T05:54:20.036Z,7.93
2019-06-25T05:57:09.230Z,7.73
2019-06-25T05:59:58.224Z,7.57
2019-06-25T06:02:47.651Z,7.53
2019-06-25T06:05:37.345Z,7.10
2019-06-25T06:08:27.054Z,8.40
2019-06-25T06:11:16.570Z,7.80
2019-06-25T06:14:06.926Z,7.47
2019-06-25T06:16:55.704Z,7.60
2019-06-25T06:19:44.498Z,7.60
2019-06-25T06:22:33.351Z,8.00
2019-06-25T06:25:22.586Z,7.67
2019-06-25T06:28:11.241Z,9.17
2019-06-25T06:31:15.515Z,8.10
2019-06-25T06:33:51.039Z,7.70
2019-06-25T06:36:39.580Z,7.80
2019-06-25T06:39:29.285Z,7.10
2019-06-25T06:42:19.071Z,8.17
2019-06-25T06:45:08.633Z,7.27
2019-06-25T06:47:57.471Z,7.63
2019-06-25T06:50:46.864Z,8.13
2019-06-25T06:53:35.792Z,7.40
2019-06-25T06:56:25.365Z,7.30
2019-06-25T06:59:14.543Z,7.10
2019-06-25T07:02:03.626Z,7.50
2019-06-25T07:04:53.284Z,7.43
2019-06-25T07:07:42.268Z,6.33
2019-06-25T07:10:31.415Z,7.77
2019-06-25T07:13:20.912Z,7.20
2019-06-25T07:16:10.064Z,7.50
2019-06-25T07:18:59.219Z,7.80
2019-06-25T07:21:48.063Z,7.40
2019-06-25T07:24:36.721Z,7.30
2019-06-25T07:27:27.075Z,7.43
2019-06-25T07:30:20.894Z,7.60
2019-06-25T07:33:10.249Z,6.87
2019-06-25T07:35:59.739Z,7.57
2019-06-25T07:38:48.745Z,8.10
2019-06-25T07:41:37.635Z,8.17
2019-06-25T07:44:26.784Z,7.30
2019-06-25T07:47:15.708Z,8.27
2019-06-25T07:50:06.343Z,7.77
2019-06-25T07:52:55.511Z,8.83
2019-06-25T07:55:44.425Z,7.60
2019-06-25T07:58:33.320Z,7.70
2019-06-25T08:01:22.640Z,8.20
2019-06-25T08:04:24.951Z,7.50
2019-06-25T08:07:02.987Z,7.67
2019-06-25T08:09:51.844Z,8.50
2019-06-25T08:12:41.229Z,7.80
2019-06-25T08:15:30.327Z,8.00
2019-06-25T08:18:19.195Z,7.00
2019-06-25T08:21:08.538Z,8.43
2019-06-25T08:23:57.802Z,7.70
2019-06-25T08:26:47.026Z,8.00
2019-06-25T08:29:37.333Z,7.53
2019-06-25T08:32:26.541Z,8.17
2019-06-25T08:35:15.429Z,8.17
2019-06-25T08:38:04.597Z,8.03
2019-06-25T08:40:53.383Z,7.60
2019-06-25T08:43:42.549Z,7.73
2019-06-25T08:46:31.437Z,8.47
2019-06-25T08:49:20.416Z,8.00
2019-06-25T08:52:09.387Z,8.20
2019-06-25T08:54:58.946Z,8.43
2019-06-25T08:57:48.347Z,7.90
2019-06-25T09:00:37.620Z,7.60
2019-06-25T09:03:27.632Z,8.17
2019-06-25T09:06:16.577Z,8.27
2019-06-25T09:09:07.047Z,8.40
2019-06-25T09:11:55.882Z,8.30
2019-06-25T09:14:45.122Z,7.63
2019-06-25T09:17:34.005Z,7.63
2019-06-25T09:20:22.714Z,7.73
2019-06-25T09:23:11.327Z,8.47
2019-06-25T09:26:00.512Z,7.37
2019-06-25T09:28:49.317Z,8.20
2019-06-25T09:31:38.837Z,8.37
2019-06-25T09:34:28.254Z,8.03
2019-06-25T09:37:17.230Z,8.23
2019-06-25T09:40:04.784Z,8.40
2019-06-25T09:42:51.569Z,8.60
2019-06-25T09:45:41.220Z,7.40
2019-06-25T09:48:31.343Z,8.03
2019-06-25T09:51:20.364Z,7.60
2019-06-25T09:54:09.463Z,8.50
2019-06-25T09:56:59.017Z,7.63
2019-06-25T09:59:48.356Z,7.90
2019-06-25T10:02:37.069Z,8.17
2019-06-25T10:05:31.463Z,7.90
2019-06-25T10:08:16.809Z,8.00
2019-06-25T10:11:06.042Z,8.00
2019-06-25T10:13:55.133Z,8.03
2019-06-25T10:16:43.989Z,7.33
2019-06-25T10:19:32.735Z,7.90
2019-06-25T10:22:21.789Z,8.40
2019-06-25T10:25:11.038Z,7.73
2019-06-25T10:27:59.796Z,8.10
2019-06-25T10:30:55.787Z,7.83
2019-06-25T10:33:44.845Z,8.63
2019-06-25T10:36:33.699Z,8.10
2019-06-25T10:39:23.115Z,8.38
2019-06-25T10:42:12.811Z,7.17
2019-06-25T10:45:03.137Z,7.90
2019-06-25T10:47:52.890Z,7.75
2019-06-25T10:50:42.333Z,8.38
2019-06-25T10:53:31.201Z,7.80
2019-06-25T10:56:21.195Z,7.72
2019-06-25T10:59:10.611Z,8.15
2019-06-25T11:02:01.350Z,8.48
2019-06-25T11:04:51.264Z,8.33
2019-06-25T11:08:00.098Z,8.08
2019-06-25T11:10:53.290Z,7.80
2019-06-25T11:13:42.954Z,8.35
2019-06-25T11:16:33.313Z,7.45
2019-06-25T11:19:22.378Z,8.08
2019-06-25T11:22:11.614Z,7.97
2019-06-25T11:25:00.959Z,7.33
2019-06-25T11:27:50.409Z,7.90
2019-06-25T11:30:40.735Z,8.20
2019-06-25T11:33:30.358Z,7.40
2019-06-25T11:36:21.805Z,7.58
2019-06-25T11:39:11.089Z,8.03
2019-06-25T11:42:01.129Z,7.12
2019-06-25T11:44:50.662Z,7.87
2019-06-25T11:47:40.097Z,7.55
2019-06-25T11:50:30.415Z,7.55
2019-06-25T11:53:20.162Z,7.35
2019-06-25T11:56:09.666Z,8.45
2019-06-25T11:58:59.489Z,7.72
2019-06-25T12:01:48.822Z,7.97
2019-06-25T12:04:38.011Z,7.20
2019-06-25T12:07:27.274Z,7.35
2019-06-25T12:10:16.794Z,7.75
2019-06-25T12:13:06.080Z,7.15
2019-06-25T12:15:55.932Z,7.25
2019-06-25T12:18:45.670Z,7.10
2019-06-25T12:21:35.204Z,6.45
2019-06-25T12:24:24.852Z,5.20
2019-06-25T12:27:14.526Z,6.50
2019-06-25T12:30:04.941Z,6.80
2019-06-25T12:32:55.297Z,7.20
2019-06-25T12:35:45.309Z,7.00
2019-06-25T12:38:34.862Z,7.30
2019-06-25T12:41:24.222Z,7.20
2019-06-25T12:44:13.890Z,7.37
2019-06-25T12:47:03.790Z,7.00
2019-06-25T12:49:53.463Z,8.35
2019-06-25T12:52:43.439Z,7.47
2019-06-25T12:55:32.986Z,7.28
2019-06-25T12:58:22.453Z,7.90
2019-06-25T13:01:10.755Z,7.80
2019-06-25T13:03:59.853Z,7.60
2019-06-25T13:06:49.179Z,7.43
2019-06-25T13:09:38.059Z,6.50
2019-06-25T13:12:27.261Z,7.70
2019-06-25T13:15:16.584Z,7.53
2019-06-25T13:18:05.849Z,7.43
2019-06-25T13:20:54.551Z,6.67
2019-06-25T13:23:43.387Z,6.72
2019-06-25T13:26:32.029Z,6.60
2019-06-25T13:29:21.371Z,7.15
2019-06-25T13:32:10.310Z,7.47
2019-06-25T13:35:00.181Z,6.42
2019-06-25T13:37:50.510Z,6.92
2019-06-25T13:40:40.005Z,6.37
2019-06-25T13:43:29.699Z,6.50
2019-06-25T13:46:17.957Z,6.53
2019-06-25T13:49:07.325Z,6.80
2019-06-25T13:51:56.610Z,7.12
2019-06-25T13:54:45.867Z,6.45
2019-06-25T13:57:48.397Z,6.85
2019-06-25T14:00:26.183Z,7.22
2019-06-25T14:03:34.490Z,7.60
2019-06-25T14:06:23.788Z,6.60
2019-06-25T14:08:53.851Z,6.97
2019-06-25T14:11:23.971Z,7.28
2019-06-25T14:13:54.576Z,6.17
2019-06-25T14:16:24.889Z,6.30
2019-06-25T14:18:55.184Z,6.30
2019-06-25T14:21:25.369Z,6.00
2019-06-25T14:24:14.131Z,6.12
2019-06-25T14:27:03.195Z,6.40
2019-06-25T14:29:52.779Z,5.72
2019-06-25T14:32:41.849Z,5.95
2019-06-25T14:35:30.601Z,6.25
2019-06-25T14:38:19.754Z,6.35
2019-06-25T14:41:08.758Z,5.78
2019-06-25T14:43:58.054Z,5.45
2019-06-25T14:46:46.478Z,5.92
2019-06-25T14:49:35.655Z,6.00
2019-06-25T14:52:24.291Z,6.03
2019-06-25T14:55:15.800Z,6.22
2019-06-25T14:58:04.740Z,5.95
2019-06-25T15:00:54.257Z,5.65
2019-06-25T15:03:42.827Z,5.53
2019-06-25T15:06:31.804Z,5.03
2019-06-25T15:09:21.627Z,5.80
2019-06-25T15:12:10.302Z,5.05
2019-06-25T15:14:59.252Z,4.87
2019-06-25T15:17:48.196Z,4.85
2019-06-25T15:20:37.166Z,4.50
2019-06-25T15:23:26.169Z,5.05
2019-06-25T15:26:15.319Z,4.72
2019-06-25T15:29:05.197Z,4.75
2019-06-25T15:31:54.319Z,4.53
2019-06-25T15:34:47.012Z,4.45
2019-06-25T15:37:34.627Z,5.37
2019-06-25T15:40:23.818Z,5.30
2019-06-25T15:43:13.540Z,5.05
2019-06-25T15:46:02.635Z,4.60
2019-06-25T15:48:51.397Z,4.80
2019-06-25T15:51:40.642Z,4.80
2019-06-25T15:54:29.381Z,4.35
2019-06-25T15:57:18.355Z,4.62
2019-06-25T16:00:08.279Z,4.80
2019-06-25T16:02:57.449Z,4.72
2019-06-25T16:05:46.899Z,4.60
2019-06-25T16:08:36.199Z,5.30
2019-06-25T16:11:25.794Z,4.50
2019-06-25T16:14:15.154Z,4.40
2019-06-25T16:17:06.155Z,4.50
2019-06-25T16:19:55.426Z,5.40
2019-06-25T16:22:44.580Z,5.08
2019-06-25T16:25:33.464Z,5.40
2019-06-25T16:28:22.262Z,4.90
2019-06-25T16:31:11.636Z,4.80
2019-06-25T16:34:00.677Z,5.03
2019-06-25T16:36:49.791Z,5.33
2019-06-25T16:39:38.513Z,5.45
2019-06-25T16:42:27.901Z,5.78
2019-06-25T16:45:17.370Z,5.42
2019-06-25T16:48:07.065Z,6.05
2019-06-25T16:50:56.124Z,5.97
2019-06-25T16:53:45.131Z,6.87
2019-06-25T16:56:33.860Z,7.10
2019-06-25T16:59:24.454Z,6.90
2019-06-25T17:02:14.453Z,6.60
2019-06-25T17:05:05.092Z,8.35
2019-06-25T17:07:54.619Z,9.13
2019-06-25T17:10:43.897Z,8.33
2019-06-25T17:13:33.479Z,8.05
2019-06-25T17:16:24.220Z,7.62
2019-06-25T17:19:16.378Z,7.58
2019-06-25T17:21:46.674Z,8.40
2019-06-25T17:24:18.142Z,8.55
2019-06-25T17:26:48.992Z,8.33
2019-06-25T17:29:20.105Z,8.55
2019-06-25T17:31:50.679Z,8.38
2019-06-25T17:34:21.409Z,8.75
2019-06-25T17:36:52.181Z,8.03
2019-06-25T17:39:22.945Z,8.80
2019-06-25T17:41:53.596Z,7.75
2019-06-25T17:44:24.591Z,8.20
2019-06-25T17:46:55.341Z,8.28
2019-06-25T17:49:25.945Z,8.50
2019-06-25T17:52:15.500Z,8.23
2019-06-25T17:55:05.298Z,8.10
2019-06-25T17:57:55.495Z,7.95
2019-06-25T18:00:45.431Z,8.63
2019-06-25T18:03:35.519Z,8.45
2019-06-25T18:06:25.563Z,8.25
2019-06-25T18:09:15.695Z,8.80
2019-06-25T18:12:05.542Z,8.35
2019-06-25T18:14:55.299Z,8.43
2019-06-25T18:17:45.283Z,8.13
2019-06-25T18:20:35.212Z,7.97
2019-06-25T18:23:24.943Z,8.85
2019-06-25T18:26:15.125Z,8.48
2019-06-25T18:29:04.939Z,8.23
2019-06-25T18:32:07.505Z,8.00
2019-06-25T18:34:45.985Z,8.40
2019-06-25T18:37:36.680Z,9.08
2019-06-25T18:40:26.325Z,8.93
2019-06-25T18:43:16.390Z,8.15
2019-06-25T18:46:06.124Z,8.30
2019-06-25T18:48:55.782Z,8.65
2019-06-25T18:51:45.523Z,9.00
2019-06-25T18:54:35.370Z,9.75
2019-06-25T18:57:25.586Z,8.43
2019-06-25T19:00:16.394Z,9.38
2019-06-25T19:03:07.079Z,9.70
2019-06-25T19:05:57.586Z,10.05
2019-06-25T19:08:48.657Z,10.20
2019-06-25T19:11:38.468Z,9.68
2019-06-25T19:14:28.602Z,9.05
2019-06-25T19:17:18.172Z,9.85
2019-06-25T19:20:08.859Z,8.70
2019-06-25T19:22:59.595Z,9.70
2019-06-25T19:25:50.682Z,9.75
2019-06-25T19:28:41.021Z,10.10
2019-06-25T19:31:33.040Z,11.28
2019-06-25T19:34:22.414Z,11.12
2019-06-25T19:37:11.384Z,10.40
2019-06-25T19:40:01.549Z,10.20
2019-06-25T19:42:51.587Z,10.60
2019-06-25T19:45:41.781Z,10.60
2019-06-25T19:48:31.791Z,11.10
2019-06-25T19:51:21.718Z,11.03
2019-06-25T19:54:11.505Z,10.98
2019-06-25T19:57:01.363Z,10.78
2019-06-25T19:59:51.316Z,10.50
2019-06-25T20:02:41.074Z,10.30
2019-06-25T20:05:30.958Z,10.85
2019-06-25T20:08:20.625Z,11.30
2019-06-25T20:11:12.903Z,10.63
2019-06-25T20:14:00.863Z,11.20
2019-06-25T20:16:50.696Z,9.60
2019-06-25T20:19:40.551Z,9.60
2019-06-25T20:22:30.200Z,9.55
2019-06-25T20:25:20.164Z,9.50
2019-06-25T20:28:10.304Z,9.73
2019-06-25T20:31:00.416Z,9.83
2019-06-25T20:33:49.838Z,9.70
2019-06-25T20:36:39.883Z,9.73
2019-06-25T20:39:28.819Z,10.20
2019-06-25T20:42:18.026Z,9.30
2019-06-25T20:45:11.624Z,9.80
2019-06-25T20:48:00.071Z,9.78
2019-06-25T20:50:49.144Z,10.17
2019-06-25T20:53:38.074Z,10.10
2019-06-25T20:56:26.873Z,10.33
2019-06-25T20:59:16.515Z,10.08
2019-06-25T21:02:05.514Z,10.50
2019-06-25T21:04:54.416Z,10.07
2019-06-25T21:07:43.630Z,11.23
2019-06-25T21:10:32.950Z,10.83
2019-06-25T21:13:22.729Z,9.43
2019-06-25T21:16:12.426Z,11.10
2019-06-25T21:19:03.821Z,10.90
2019-06-25T21:21:52.462Z,10.10
2019-06-25T21:24:41.855Z,11.07
2019-06-25T21:27:31.553Z,9.83
2019-06-25T21:30:20.898Z,10.07
2019-06-25T21:33:10.140Z,10.23
2019-06-25T21:35:59.879Z,11.30
2019-06-25T21:38:51.546Z,10.90
2019-06-25T21:41:39.489Z,11.70
2019-06-25T21:44:28.714Z,10.47
2019-06-25T21:47:17.829Z,11.00
2019-06-25T21:50:07.633Z,10.47
2019-06-25T21:52:56.864Z,10.60
2019-06-25T21:55:45.997Z,10.93
2019-06-25T21:58:35.188Z,10.37
2019-06-25T22:01:27.031Z,10.57
2019-06-25T22:04:15.807Z,10.37
2019-06-25T22:07:05.303Z,11.23
2019-06-25T22:09:54.550Z,10.57
2019-06-25T22:12:43.883Z,10.00
2019-06-25T22:15:33.372Z,10.57
2019-06-25T22:18:22.956Z,10.70
2019-06-25T22:21:12.740Z,11.37
2019-06-25T22:24:02.063Z,11.00
2019-06-25T22:26:51.132Z,11.03
2019-06-25T22:29:40.056Z,10.50
2019-06-25T22:32:29.627Z,10.10
2019-06-25T22:35:19.069Z,11.57
2019-06-25T22:38:08.033Z,11.20
2019-06-25T22:40:57.294Z,13.07
2019-06-25T22:43:46.468Z,12.13
2019-06-25T22:46:36.104Z,11.53
2019-06-25T22:49:24.940Z,13.00
2019-06-25T22:52:14.310Z,14.30
2019-06-25T22:55:03.225Z,15.60
2019-06-25T22:57:51.766Z,15.00
2019-06-25T23:00:40.811Z,15.20
2019-06-25T23:03:29.521Z,15.43
2019-06-25T23:06:17.984Z,16.70
2019-06-25T23:09:08.190Z,17.03
2019-06-25T23:11:57.769Z,18.20
2019-06-25T23:14:46.444Z,17.27
2019-06-25T23:17:35.657Z,18.43
2019-06-25T23:20:25.375Z,19.63
2019-06-25T23:23:14.240Z,18.17
2019-06-25T23:26:02.948Z,20.53
2019-06-25T23:28:52.171Z,21.57
2019-06-25T23:31:41.209Z,22.13
2019-06-25T23:34:30.302Z,22.20
2019-06-25T23:37:19.547Z,23.27
2019-06-25T23:40:08.668Z,23.30
2019-06-25T23:43:09.837Z,22.40
2019-06-25T23:45:47.696Z,22.43
2019-06-25T23:48:36.982Z,23.73
2019-06-25T23:51:25.520Z,27.17
2019-06-25T23:54:14.717Z,23.43
2019-06-25T23:57:03.947Z,27.20
2019-06-25T23:59:53.028Z,26.47
